Time;durP1;ratioP1;P1;durP2;ratioP2;P2;SDS_P1;SDS_P2;PMS_P1;PMS_P2;Temp;Humidity;BMP_temperature;BMP_pressure;BME280_temperature;BME280_humidity;BME280_pressure;Samples;Min_cycle;Max_cycle;Signal;HPM_P1;HPM_P2
2022/08/01 00:00:13;;;;;;;3.47;2.70;;;;;;;29.55;32.43;101015.41;4970325;28;20059;-80
2022/08/01 00:02:40;;;;;;;5.30;2.42;;;;;;;28.73;32.42;100900.22;4971358;28;20149;-85
2022/08/01 00:05:08;;;;;;;4.10;2.85;;;;;;;29.13;32.35;100981.19;4970493;28;20106;-81
2022/08/01 00:07:35;;;;;;;3.30;2.45;;;;;;;29.39;32.28;101017.09;4971080;28;20066;-81
2022/08/01 00:10:08;;;;;;;6.97;3.15;;;;;;;28.01;32.46;100799.09;4969776;28;20097;-83
2022/08/01 00:12:35;;;;;;;4.15;2.55;;;;;;;28.37;32.29;100846.91;4970637;28;20051;-84
2022/08/01 00:15:05;;;;;;;5.30;3.22;;;;;;;28.85;32.12;100905.59;4970417;28;20042;-82
2022/08/01 00:17:32;;;;;;;3.28;2.90;;;;;;;29.12;32.14;100940.44;4970508;28;20047;-83
2022/08/01 00:19:59;;;;;;;3.70;2.78;;;;;;;29.41;32.76;101006.72;4970080;28;20051;-84
2022/08/01 00:22:25;;;;;;;3.70;3.30;;;;;;;28.84;32.85;100935.91;4969487;28;20050;-81
2022/08/01 00:24:52;;;;;;;3.95;3.53;;;;;;;29.22;33.19;101019.84;4968475;28;20462;-82
2022/08/01 00:27:19;;;;;;;5.85;3.65;;;;;;;28.12;33.39;100837.25;4969985;28;20050;-83
2022/08/01 00:29:45;;;;;;;5.78;3.33;;;;;;;28.58;33.71;100908.19;4970095;28;20062;-83
2022/08/01 00:32:32;;;;;;;5.60;3.50;;;;;;;29.17;33.68;101008.84;4971146;28;20062;-82
2022/08/01 00:34:59;;;;;;;3.72;3.42;;;;;;;29.11;33.82;101010.69;4969539;28;20476;-83
2022/08/01 00:37:26;;;;;;;4.63;3.67;;;;;;;27.74;33.52;100799.72;4969654;28;20055;-83
2022/08/01 00:39:55;;;;;;;4.10;3.67;;;;;;;28.81;33.53;100977.38;4969745;28;20562;-83
2022/08/01 00:42:22;;;;;;;5.93;3.70;;;;;;;28.86;33.40;100991.97;4971559;28;20081;-82
2022/08/01 00:44:49;;;;;;;3.50;3.20;;;;;;;28.26;33.83;100900.53;4974960;28;20062;-82
2022/08/01 00:47:16;;;;;;;4.55;3.38;;;;;;;28.75;34.04;100996.41;4974128;28;20050;-83
2022/08/01 00:49:43;;;;;;;4.28;3.20;;;;;;;28.74;34.26;101007.56;4969475;28;20436;-83
2022/08/01 00:52:10;;;;;;;4.85;3.50;;;;;;;28.67;34.57;101004.19;4969310;28;20437;-84
2022/08/01 00:54:37;;;;;;;3.63;3.22;;;;;;;28.66;34.37;101019.75;4969466;28;20058;-81
2022/08/01 00:57:08;;;;;;;3.20;2.95;;;;;;;28.57;34.88;101018.50;4969232;28;20059;-82
2022/08/01 00:59:36;;;;;;;4.45;3.60;;;;;;;28.43;34.96;100995.28;4969134;28;20081;-84
2022/08/01 01:02:06;;;;;;;4.57;3.08;;;;;;;28.36;35.16;100989.97;4968660;28;20082;-82
2022/08/01 01:04:40;;;;;;;7.57;3.97;;;;;;;28.38;35.14;100989.72;4969143;28;20288;-83
2022/08/01 01:07:23;;;;;;;4.10;3.75;;;;;;;28.40;34.82;100998.47;4968839;28;20051;-84
2022/08/01 01:10:04;;;;;;;5.85;3.10;;;;;;;28.42;34.11;100988.97;4970203;28;20062;-84
2022/08/01 01:12:34;;;;;;;3.80;3.13;;;;;;;28.67;34.57;101026.06;4972495;28;20097;-84
2022/08/01 01:15:39;;;;;;;3.63;3.15;;;;;;;28.58;34.56;101028.34;4973208;28;20055;-83
2022/08/01 01:18:23;;;;;;;4.47;2.85;;;;;;;28.31;34.68;100990.69;4974576;28;20473;-83
2022/08/01 01:21:11;;;;;;;3.38;2.75;;;;;;;28.37;34.85;100997.06;4974243;28;20262;-83
2022/08/01 01:24:05;;;;;;;3.60;3.15;;;;;;;28.48;34.39;101022.72;4970685;28;20462;-84
2022/08/01 01:26:49;;;;;;;4.18;3.67;;;;;;;28.41;34.09;101011.06;4968333;28;20466;-84
2022/08/01 01:29:18;;;;;;;3.20;2.90;;;;;;;28.47;34.59;101021.03;4968267;28;20462;-83
2022/08/01 01:31:51;;;;;;;5.18;3.22;;;;;;;28.27;34.53;101003.16;4968770;28;20054;-83
2022/08/01 01:34:21;;;;;;;3.67;2.70;;;;;;;28.36;34.04;101017.28;4969114;28;20405;-82
2022/08/01 01:36:51;;;;;;;10.43;2.90;;;;;;;27.80;34.39;100926.94;4967891;28;20424;-83
2022/08/01 01:39:20;;;;;;;6.25;2.72;;;;;;;28.19;34.32;100987.19;4968456;28;20101;-85
2022/08/01 01:41:49;;;;;;;3.08;2.80;;;;;;;27.90;34.31;100949.00;4968480;28;20666;-83
2022/08/01 01:44:18;;;;;;;5.32;2.97;;;;;;;27.69;34.71;100928.63;4967890;28;20088;-83
2022/08/01 01:46:47;;;;;;;3.60;3.13;;;;;;;28.16;34.96;101003.22;4967962;28;20085;-83
2022/08/01 01:49:15;;;;;;;4.07;2.90;;;;;;;27.60;34.80;100921.06;4967900;28;20120;-83
2022/08/01 01:51:44;;;;;;;3.15;2.85;;;;;;;28.16;34.68;101023.19;4968012;28;20109;-84
2022/08/01 01:54:32;;;;;;;3.50;2.97;;;;;;;27.86;34.91;100977.00;4967793;28;20047;-83
2022/08/01 01:57:01;;;;;;;4.57;3.08;;;;;;;28.13;35.09;101020.91;4968222;28;20082;-82
2022/08/01 01:59:31;;;;;;;4.60;2.90;;;;;;;28.14;35.17;101011.66;4967911;28;20456;-82
2022/08/01 02:02:02;;;;;;;5.47;3.10;;;;;;;27.36;34.72;100893.88;4967850;28;20410;-81
2022/08/01 02:04:35;;;;;;;3.78;3.30;;;;;;;27.56;34.81;100936.28;4969103;28;20101;-82
2022/08/01 02:07:04;;;;;;;3.42;3.03;;;;;;;26.79;34.96;100818.25;4968410;28;20049;-82
2022/08/01 02:09:32;;;;;;;3.22;2.95;;;;;;;28.01;35.36;101010.06;4967834;28;20629;-83
2022/08/01 02:12:01;;;;;;;3.35;2.70;;;;;;;27.95;35.56;101018.38;4967711;28;20077;-84
2022/08/01 02:14:35;;;;;;;4.85;3.97;;;;;;;27.44;35.25;100930.84;4968463;28;20515;-82
2022/08/01 02:17:06;;;;;;;5.68;3.40;;;;;;;27.94;34.64;101023.00;4969956;28;20444;-82
2022/08/01 02:19:34;;;;;;;3.33;3.03;;;;;;;26.64;35.54;100807.84;4970653;28;20085;-85
2022/08/01 02:22:13;;;;;;;4.75;3.45;;;;;;;27.95;35.23;101018.38;4968077;28;20567;-83
2022/08/01 02:24:59;;;;;;;3.35;3.05;;;;;;;27.77;35.10;100995.63;4949045;28;20086;-83
2022/08/01 02:27:31;;;;;;;3.47;2.83;;;;;;;27.81;35.10;101004.97;4948964;29;20047;-83
2022/08/01 02:30:01;;;;;;;3.15;2.85;;;;;;;27.80;34.62;101006.06;4949682;29;20438;-83
2022/08/01 02:32:36;;;;;;;4.03;3.25;;;;;;;27.86;34.64;101005.09;4948729;29;20236;-83
2022/08/01 02:35:07;;;;;;;9.57;2.97;;;;;;;27.95;34.91;101029.28;4948742;29;20059;-83
2022/08/01 02:37:37;;;;;;;2.92;2.50;;;;;;;27.92;34.48;101019.69;4949008;29;20137;-82
2022/08/01 02:40:17;;;;;;;2.80;2.60;;;;;;;27.85;34.40;101016.28;4949702;29;20414;-82
2022/08/01 02:42:47;;;;;;;2.92;2.72;;;;;;;27.94;34.40;101030.34;4950907;29;20052;-83
2022/08/01 02:45:17;;;;;;;3.28;2.83;;;;;;;26.92;34.51;100849.88;4954005;29;20288;-82
2022/08/01 02:47:46;;;;;;;5.22;3.03;;;;;;;27.74;34.65;100979.72;4954164;28;20062;-83
2022/08/01 02:50:14;;;;;;;3.78;2.80;;;;;;;27.84;34.44;101007.25;4952673;29;20065;-80
2022/08/01 02:52:43;;;;;;;3.83;2.67;;;;;;;27.92;34.48;101014.25;4953899;28;20051;-83
2022/08/01 02:55:13;;;;;;;3.15;2.85;;;;;;;27.48;34.14;100946.50;4952426;29;20501;-82
2022/08/01 02:57:42;;;;;;;3.03;2.60;;;;;;;26.79;34.25;100831.03;4952069;28;20055;-84
2022/08/01 03:00:24;;;;;;;5.88;2.97;;;;;;;27.03;34.25;100878.16;4952553;29;20059;-83
2022/08/01 03:02:54;;;;;;;3.53;3.00;;;;;;;27.95;34.36;101027.38;4951650;29;20051;-83
2022/08/01 03:05:23;;;;;;;4.43;2.47;;;;;;;26.96;34.32;100870.09;4952385;29;20059;-84
2022/08/01 03:07:52;;;;;;;2.95;2.75;;;;;;;27.39;34.26;100945.19;4936583;29;20177;-84
2022/08/01 03:10:21;;;;;;;4.20;3.15;;;;;;;27.78;34.22;101005.47;4951910;28;20062;-83
2022/08/01 03:12:49;;;;;;;2.72;2.53;;;;;;;27.43;34.39;100950.97;4952465;29;20082;-81
2022/08/01 03:15:17;;;;;;;3.70;2.60;;;;;;;26.99;34.67;100888.72;4952054;29;20055;-83
2022/08/01 03:17:46;;;;;;;2.53;2.33;;;;;;;27.85;34.20;101019.81;4951962;29;20051;-84
2022/08/01 03:20:16;;;;;;;4.65;2.40;;;;;;;27.47;34.51;100963.91;4952134;29;20043;-83
2022/08/01 03:22:44;;;;;;;3.08;2.75;;;;;;;27.35;34.60;100944.00;4956576;28;20059;-83
2022/08/01 03:25:13;;;;;;;2.67;2.47;;;;;;;27.75;34.82;101014.13;4971120;28;20050;-83
2022/08/01 03:27:43;;;;;;;5.60;2.65;;;;;;;27.66;34.86;101007.38;4971852;28;20047;-84
2022/08/01 03:30:11;;;;;;;4.18;2.47;;;;;;;26.97;34.63;100900.91;4975038;28;20051;-81
2022/08/01 03:32:38;;;;;;;5.15;2.70;;;;;;;27.27;34.63;100919.84;4974320;28;20108;-82
2022/08/01 03:35:05;;;;;;;4.00;2.65;;;;;;;27.69;34.43;100996.81;4974393;28;20054;-82
2022/08/01 03:37:44;;;;;;;3.00;2.80;;;;;;;27.23;34.91;100924.94;4973985;28;20113;-82
2022/08/01 03:40:37;;;;;;;3.38;2.90;;;;;;;27.40;34.76;100956.91;4973439;28;20485;-82
2022/08/01 03:43:35;;;;;;;3.00;2.78;;;;;;;27.23;34.89;100932.28;4970813;28;20141;-83
2022/08/01 03:46:09;;;;;;;5.05;3.35;;;;;;;26.96;35.16;100905.50;4967712;28;20286;-81
2022/08/01 03:48:42;;;;;;;4.68;2.92;;;;;;;27.64;35.12;101025.88;4970562;28;20043;-81
2022/08/01 03:51:10;;;;;;;4.10;2.90;;;;;;;27.16;35.11;100950.63;4971171;28;20392;-82
2022/08/01 03:53:39;;;;;;;3.10;2.65;;;;;;;27.42;34.95;100988.31;4970552;28;20073;-81
2022/08/01 03:56:09;;;;;;;3.13;2.80;;;;;;;27.55;35.25;101024.59;4970379;28;20057;-82
2022/08/01 03:58:41;;;;;;;5.60;2.65;;;;;;;27.03;35.06;100960.72;4970480;28;20054;-82
2022/08/01 04:01:11;;;;;;;5.45;3.22;;;;;;;26.74;35.65;100923.53;4970794;28;20145;-83
2022/08/01 04:03:42;;;;;;;4.65;2.97;;;;;;;27.33;35.40;101027.09;4970432;28;20058;-83
2022/08/01 04:06:10;;;;;;;3.50;3.20;;;;;;;26.63;35.52;100909.66;4970469;28;20046;-85
2022/08/01 04:08:38;;;;;;;4.22;3.33;;;;;;;27.36;35.66;101032.91;4970387;28;20130;-83
2022/08/01 04:11:07;;;;;;;3.28;3.05;;;;;;;26.96;35.55;100979.06;4969926;28;20047;-84
2022/08/01 04:13:34;;;;;;;3.92;2.78;;;;;;;27.31;35.48;101030.06;4970395;28;20448;-82
2022/08/01 04:16:04;;;;;;;3.40;3.10;;;;;;;26.94;35.16;100972.19;4970293;28;20078;-82
2022/08/01 04:18:31;;;;;;;4.63;2.95;;;;;;;27.38;34.96;101038.97;4970139;28;20469;-83
2022/08/01 04:20:58;;;;;;;3.60;2.83;;;;;;;26.20;35.08;100834.53;4970209;28;20069;-80
2022/08/01 04:23:27;;;;;;;4.63;3.03;;;;;;;27.43;34.79;101033.63;4966466;28;20079;-82
2022/08/01 04:25:55;;;;;;;4.35;2.83;;;;;;;27.49;35.34;101042.72;4967149;28;20224;-81
2022/08/01 04:28:23;;;;;;;3.35;2.95;;;;;;;27.47;35.21;101034.78;4966709;28;20122;-83
2022/08/01 04:30:54;;;;;;;5.15;2.80;;;;;;;27.48;35.10;101047.38;4951901;28;20055;-82
2022/08/01 04:33:30;;;;;;;2.70;2.50;;;;;;;27.50;35.15;101049.84;4966320;28;20086;-83
2022/08/01 04:35:59;;;;;;;4.22;2.95;;;;;;;27.43;35.41;101039.06;4965313;28;20059;-83
2022/08/01 04:38:36;;;;;;;4.72;3.30;;;;;;;27.25;35.55;101009.19;4969626;28;20539;-82
2022/08/01 04:41:06;;;;;;;2.90;2.70;;;;;;;26.94;35.07;100948.50;4971225;28;20055;-82
2022/08/01 04:43:36;;;;;;;2.97;2.67;;;;;;;27.62;34.84;101053.41;4974106;28;20054;-83
2022/08/01 04:46:03;;;;;;;3.30;3.00;;;;;;;27.54;35.49;101045.56;4975423;28;20141;-81
2022/08/01 04:48:33;;;;;;;4.07;3.67;;;;;;;27.23;35.64;100992.25;4934629;28;20074;-82
2022/08/01 04:51:00;;;;;;;4.45;2.95;;;;;;;27.44;35.74;101029.00;4930343;29;20574;-81
2022/08/01 04:53:27;;;;;;;4.35;3.00;;;;;;;26.93;35.63;100952.31;4921941;29;20635;-83
2022/08/01 04:55:55;;;;;;;3.00;2.70;;;;;;;26.59;35.71;100897.59;4930599;29;20086;-85
2022/08/01 04:58:24;;;;;;;5.45;2.72;;;;;;;27.55;36.10;101057.31;4935267;29;20036;-84
2022/08/01 05:00:51;;;;;;;3.42;2.67;;;;;;;27.14;35.84;100988.19;4918093;29;20487;-83
2022/08/01 05:03:18;;;;;;;3.05;2.85;;;;;;;27.13;35.57;100975.63;4914070;29;20087;-83
2022/08/01 05:05:45;;;;;;;3.47;3.17;;;;;;;27.61;35.33;101051.72;4925859;29;20510;-82
2022/08/01 05:08:11;;;;;;;5.50;2.95;;;;;;;27.76;34.96;101047.69;4932697;29;20553;-82
2022/08/01 05:10:41;;;;;;;2.65;2.45;;;;;;;27.81;35.00;101062.25;4947400;28;20117;-83
2022/08/01 05:13:08;;;;;;;4.63;3.03;;;;;;;27.65;35.40;101019.38;4931786;29;20058;-85
2022/08/01 05:15:38;;;;;;;3.60;2.70;;;;;;;27.36;34.83;100972.13;4962392;28;20058;-83
2022/08/01 05:18:05;;;;;;;3.35;2.80;;;;;;;27.86;35.68;101054.22;4968939;28;20079;-82
2022/08/01 05:20:35;;;;;;;4.30;2.72;;;;;;;27.58;35.28;101002.31;4968944;28;20051;-83
2022/08/01 05:23:03;;;;;;;3.05;2.78;;;;;;;27.77;35.39;101024.78;4968193;28;20493;-82
2022/08/01 05:25:30;;;;;;;2.72;2.50;;;;;;;27.76;35.63;101034.88;4968864;28;20378;-83
2022/08/01 05:28:16;;;;;;;2.90;2.70;;;;;;;27.80;35.17;101041.50;4968553;28;20057;-82
2022/08/01 05:30:45;;;;;;;4.40;2.83;;;;;;;28.05;35.44;101071.25;4968690;28;20062;-79
2022/08/01 05:33:12;;;;;;;4.22;3.17;;;;;;;27.96;35.91;101058.22;4969121;28;20051;-81
2022/08/01 05:35:38;;;;;;;4.97;2.63;;;;;;;28.09;35.38;101074.34;4973033;28;20069;-81
2022/08/01 05:38:15;;;;;;;3.65;3.22;;;;;;;28.17;36.18;101065.75;4988104;28;20097;-81
2022/08/01 05:40:41;;;;;;;3.60;2.75;;;;;;;28.15;36.34;101067.91;4988244;28;20093;-82
2022/08/01 05:43:08;;;;;;;3.45;3.15;;;;;;;28.03;36.77;101043.38;4991291;28;20046;-84
2022/08/01 05:45:35;;;;;;;3.40;3.10;;;;;;;28.10;36.69;101059.63;4984748;28;20062;-82
2022/08/01 05:48:01;;;;;;;3.88;2.90;;;;;;;28.15;35.54;101051.53;4977965;28;20059;-83
2022/08/01 05:50:28;;;;;;;6.72;3.20;;;;;;;28.34;35.77;101080.28;4976363;28;20057;-83
2022/08/01 05:52:55;;;;;;;3.17;2.88;;;;;;;28.38;36.27;101079.84;4980326;28;20565;-83
2022/08/01 05:55:22;;;;;;;7.07;2.85;;;;;;;28.33;35.94;101075.91;4982122;28;20047;-83
2022/08/01 05:57:48;;;;;;;4.75;2.97;;;;;;;28.43;36.38;101075.28;4980188;28;20050;-83
2022/08/01 06:00:15;;;;;;;4.28;2.92;;;;;;;27.91;36.48;100988.00;4970601;28;20058;-82
2022/08/01 06:02:43;;;;;;;3.03;2.58;;;;;;;27.52;36.66;100916.81;4967806;28;20062;-81
2022/08/01 06:05:10;;;;;;;4.70;2.92;;;;;;;28.31;36.43;101045.31;4968165;28;20053;-83
2022/08/01 06:07:39;;;;;;;6.60;3.30;;;;;;;28.19;35.60;101027.31;4969846;28;20054;-83
2022/08/01 06:10:09;;;;;;;8.15;2.92;;;;;;;27.89;35.22;100961.00;4967804;28;20069;-82
2022/08/01 06:12:36;;;;;;;4.82;2.55;;;;;;;28.18;35.66;100996.47;4968609;28;20050;-82
2022/08/01 06:15:05;;;;;;;4.30;2.58;;;;;;;28.24;35.06;100995.47;4967510;28;20243;-82
2022/08/01 06:17:31;;;;;;;4.00;2.92;;;;;;;28.58;34.53;101039.28;4967769;28;20051;-83
2022/08/01 06:19:59;;;;;;;5.78;3.55;;;;;;;28.51;35.11;101020.31;4967919;28;20594;-83
2022/08/01 06:22:26;;;;;;;3.63;2.70;;;;;;;28.67;34.71;101046.00;4967503;28;20287;-82
2022/08/01 06:24:53;;;;;;;5.72;3.10;;;;;;;28.99;35.08;101075.50;4967179;28;20051;-81
2022/08/01 06:27:20;;;;;;;3.95;2.90;;;;;;;29.04;34.39;101075.59;4968171;28;20259;-80
2022/08/01 06:29:48;;;;;;;3.72;3.28;;;;;;;29.04;34.40;101070.13;4970182;28;20448;-81
2022/08/01 06:32:22;;;;;;;3.15;2.67;;;;;;;29.09;34.68;101077.59;4967349;28;20046;-82
2022/08/01 06:34:54;;;;;;;3.38;2.85;;;;;;;28.60;34.00;100977.03;4967590;28;20584;-83
2022/08/01 06:37:22;;;;;;;4.60;3.38;;;;;;;29.03;33.80;101022.00;4968812;28;20149;-83
2022/08/01 06:39:49;;;;;;;3.58;2.95;;;;;;;29.43;33.51;101072.13;4967688;28;20122;-82
2022/08/01 06:42:17;;;;;;;5.38;2.83;;;;;;;29.37;33.17;101047.44;4969258;28;20141;-83
2022/08/01 06:44:44;;;;;;;4.38;3.10;;;;;;;29.44;33.67;101057.34;4970152;28;20141;-84
2022/08/01 06:47:11;;;;;;;7.75;3.13;;;;;;;29.14;33.76;101012.91;4971490;28;20070;-84
2022/08/01 06:49:38;;;;;;;3.78;2.83;;;;;;;29.59;33.78;101080.31;4967244;28;20055;-83
2022/08/01 06:52:05;;;;;;;4.20;2.67;;;;;;;29.01;33.19;100977.69;4966188;28;20051;-84
2022/08/01 06:54:32;;;;;;;3.40;2.28;;;;;;;29.08;33.22;100989.31;4965962;28;20069;-83
2022/08/01 06:56:59;;;;;;;4.20;2.63;;;;;;;28.90;33.81;100965.75;4965999;28;20175;-82
2022/08/01 06:59:26;;;;;;;9.55;3.20;;;;;;;29.09;33.14;100990.97;4967758;28;20513;-83
2022/08/01 07:01:52;;;;;;;4.25;3.03;;;;;;;29.79;33.05;101092.63;4966243;28;20097;-82
2022/08/01 07:04:19;;;;;;;3.28;2.97;;;;;;;29.61;32.63;101069.09;4965703;28;20042;-81
2022/08/01 07:06:45;;;;;;;9.15;3.10;;;;;;;29.50;32.45;101026.28;4965060;28;20097;-80
2022/08/01 07:09:12;;;;;;;4.53;3.00;;;;;;;29.90;32.92;101094.41;4965318;28;20043;-84
2022/08/01 07:11:40;;;;;;;4.85;2.83;;;;;;;29.74;33.10;101046.06;4966889;28;20126;-82
2022/08/01 07:14:07;;;;;;;3.05;2.30;;;;;;;30.02;32.75;101086.91;4965795;28;20137;-83
2022/08/01 07:16:34;;;;;;;8.85;2.95;;;;;;;30.12;32.14;101085.38;4967038;28;20058;-83
2022/08/01 07:19:00;;;;;;;10.98;2.83;;;;;;;30.06;32.34;101062.59;4966363;28;20477;-82
2022/08/01 07:21:27;;;;;;;3.42;2.45;;;;;;;29.77;32.25;101029.13;4967025;28;20497;-84
2022/08/01 07:24:09;;;;;;;5.30;3.78;;;;;;;29.47;32.22;100972.06;4982960;28;20057;-83
2022/08/01 07:26:46;;;;;;;9.23;7.72;;;;;;;30.13;32.07;101065.16;4986011;28;20100;-84
2022/08/01 07:29:20;;;;;;;11.40;10.30;;;;;;;30.13;32.22;101057.75;4969523;28;20131;-83
2022/08/01 07:31:46;;;;;;;11.73;8.25;;;;;;;30.25;32.52;101079.56;4967087;28;20180;-83
2022/08/01 07:34:13;;;;;;;7.50;6.82;;;;;;;29.66;32.81;100983.53;4970500;28;20121;-82
2022/08/01 07:36:39;;;;;;;7.57;5.57;;;;;;;30.00;32.67;101034.34;4971876;28;20504;-83
2022/08/01 07:39:06;;;;;;;6.13;3.97;;;;;;;30.34;32.33;101072.56;4971700;28;20054;-82
2022/08/01 07:41:33;;;;;;;4.07;3.00;;;;;;;29.42;32.46;100923.63;4971818;28;20294;-82
2022/08/01 07:44:20;;;;;;;3.22;2.80;;;;;;;30.13;31.89;101044.06;4971998;28;20130;-81
2022/08/01 07:46:46;;;;;;;3.60;3.30;;;;;;;29.42;32.00;100911.84;4970345;28;20113;-83
2022/08/01 07:49:13;;;;;;;4.93;2.97;;;;;;;30.36;32.86;101072.28;4972427;28;20055;-82
2022/08/01 07:51:40;;;;;;;5.25;2.88;;;;;;;30.44;32.25;101077.31;4971268;28;20053;-83
2022/08/01 07:54:07;;;;;;;2.95;2.75;;;;;;;30.54;32.31;101076.59;4971000;28;20050;-82
2022/08/01 07:56:35;;;;;;;4.80;2.53;;;;;;;30.30;32.17;101037.72;4970256;28;20121;-83
2022/08/01 07:59:02;;;;;;;3.13;2.92;;;;;;;30.53;32.52;101074.94;4970579;28;20328;-82
2022/08/01 08:01:28;;;;;;;6.75;3.10;;;;;;;30.56;32.69;101060.69;4970633;28;20047;-83
2022/08/01 08:03:58;;;;;;;3.38;2.85;;;;;;;30.64;32.12;101063.00;4970407;28;20129;-81
2022/08/01 08:06:25;;;;;;;6.22;4.13;;;;;;;30.09;33.03;100976.41;4973535;28;20050;-83
2022/08/01 08:08:53;;;;;;;4.82;3.17;;;;;;;29.97;32.44;100950.00;4975546;28;20059;-84
2022/08/01 08:11:20;;;;;;;6.13;3.28;;;;;;;29.87;31.92;100908.84;4976459;28;20484;-83
2022/08/01 08:13:46;;;;;;;9.80;3.40;;;;;;;30.53;32.51;101003.69;4976093;28;20121;-82
2022/08/01 08:16:13;;;;;;;5.90;3.30;;;;;;;30.83;32.39;101068.97;4976345;28;20057;-81
2022/08/01 08:18:40;;;;;;;7.22;3.30;;;;;;;30.27;33.01;100967.03;4972919;28;20061;-82
2022/08/01 08:21:07;;;;;;;6.13;2.83;;;;;;;30.70;32.24;101009.88;4970247;28;20106;-83
2022/08/01 08:26:19;;;;;;;5.07;2.80;;;;;;;30.24;32.76;100919.91;4951339;28;20051;-81
2022/08/01 08:28:46;;;;;;;6.20;2.90;;;;;;;31.17;32.88;101080.47;4951660;28;20180;-82
2022/08/01 08:31:13;;;;;;;11.43;3.30;;;;;;;31.17;32.25;101066.78;4969441;28;20114;-82
2022/08/01 08:33:59;;;;;;;6.43;2.92;;;;;;;30.97;32.70;101028.22;4969948;28;20058;-82
2022/08/01 08:36:26;;;;;;;6.75;3.38;;;;;;;31.34;32.91;101071.25;4968970;28;20142;-83
2022/08/01 08:39:00;;;;;;;3.13;2.47;;;;;;;31.32;32.86;101044.09;4970757;28;20057;-79
2022/08/01 08:41:29;;;;;;;8.27;3.00;;;;;;;30.54;32.54;100901.28;4969064;28;20061;-83
2022/08/01 08:44:05;;;;;;;42.83;5.55;;;;;;;30.66;32.04;100915.59;4970944;28;20058;-83
2022/08/01 08:46:46;;;;;;;23.88;4.47;;;;;;;31.61;31.90;101041.03;4972151;28;20055;-81
2022/08/01 08:49:20;;;;;;;7.43;3.80;;;;;;;32.00;30.79;101077.19;4973777;28;20156;-80
2022/08/01 08:51:51;;;;;;;5.07;3.20;;;;;;;31.06;31.97;100936.16;4970687;28;20054;-83
2022/08/01 08:54:23;;;;;;;3.50;2.72;;;;;;;31.84;32.11;101056.22;4969916;28;20066;-82
2022/08/01 08:56:58;;;;;;;3.08;2.78;;;;;;;31.90;32.01;101027.69;4965773;28;20465;-81
2022/08/01 08:59:25;;;;;;;4.80;3.10;;;;;;;32.02;32.11;101053.03;4969668;28;20051;-81
2022/08/01 09:01:52;;;;;;;8.98;3.30;;;;;;;31.63;32.12;100990.25;4969032;28;20054;-83
2022/08/01 09:04:22;;;;;;;6.78;3.92;;;;;;;31.89;32.21;101009.56;4969628;28;20051;-82
2022/08/01 09:06:52;;;;;;;7.75;4.45;;;;;;;31.96;32.00;101003.84;4969821;28;20043;-84
2022/08/01 09:09:19;;;;;;;9.85;3.55;;;;;;;32.40;31.50;101050.94;4968787;28;20047;-82
2022/08/01 09:11:46;;;;;;;10.65;4.32;;;;;;;32.10;30.96;100986.59;4968849;28;20062;-82
2022/08/01 09:14:26;;;;;;;19.05;4.18;;;;;;;32.52;31.37;101046.03;4969095;28;20565;-81
2022/08/01 09:17:06;;;;;;;12.88;4.60;;;;;;;32.84;29.79;101075.19;4963584;28;20047;-81
2022/08/01 09:19:39;;;;;;;9.15;3.85;;;;;;;32.69;30.28;101025.72;4957245;28;20073;-82
2022/08/01 09:22:11;;;;;;;7.35;4.70;;;;;;;32.47;30.36;100999.28;4969349;28;20493;-81
2022/08/01 09:24:39;;;;;;;;;;;;;;;32.98;30.36;101065.31;4969414;28;20051;-81
2022/08/01 09:27:20;;;;;;;5.22;4.15;;;;;;;33.11;29.78;101068.63;4968707;28;19925;-81
2022/08/01 09:29:52;;;;;;;6.93;3.95;;;;;;;33.16;29.81;101057.66;4968950;28;20054;-81
2022/08/01 09:32:28;;;;;;;9.70;3.90;;;;;;;32.99;29.36;101011.97;4969447;28;20079;-82
2022/08/01 09:35:26;;;;;;;6.10;4.50;;;;;;;32.88;30.04;100971.81;4949484;29;20058;-81
2022/08/01 09:38:20;;;;;;;5.78;4.82;;;;;;;33.31;29.84;101041.09;4949720;29;20055;-81
2022/08/01 09:40:58;;;;;;;7.75;4.93;;;;;;;33.48;29.04;101054.53;4949223;29;20043;-82
2022/08/01 09:43:27;;;;;;;4.60;3.92;;;;;;;33.27;29.00;100995.16;4967555;28;20101;-82
2022/08/01 09:45:55;;;;;;;5.97;3.80;;;;;;;33.74;28.29;101046.22;4968122;28;20521;-82
2022/08/01 09:48:24;;;;;;;5.38;3.92;;;;;;;33.91;28.26;101052.25;4969338;28;20113;-81
2022/08/01 09:50:57;;;;;;;4.63;4.22;;;;;;;33.99;28.27;101050.81;4968309;28;20555;-82
2022/08/01 09:53:46;;;;;;;6.20;5.70;;;;;;;34.01;28.27;101046.69;4954198;28;20050;-83
2022/08/01 09:56:21;;;;;;;8.07;5.68;;;;;;;33.83;28.62;101003.25;4968423;28;20077;-82
2022/08/01 09:58:52;;;;;;;5.90;5.25;;;;;;;33.88;28.61;100994.13;4968271;28;20062;-82
2022/08/01 10:01:25;;;;;;;6.22;4.18;;;;;;;34.12;28.29;101006.16;4967579;28;20102;-82
2022/08/01 10:04:04;;;;;;;5.95;5.45;;;;;;;34.50;27.95;101036.78;4965821;28;20378;-82
2022/08/01 10:06:31;;;;;;;8.88;8.00;;;;;;;34.55;28.24;101031.22;4966900;28;20050;-82
2022/08/01 10:08:58;;;;;;;12.43;8.15;;;;;;;34.74;27.50;101003.81;4968095;28;20137;-83
2022/08/01 10:11:26;;;;;;;14.50;8.43;;;;;;;34.90;27.56;101016.31;4969640;28;20054;-83
2022/08/01 10:14:05;;;;;;;9.07;8.25;;;;;;;34.94;27.76;101013.81;4969563;28;20515;-83
2022/08/01 10:16:37;;;;;;;10.38;7.90;;;;;;;35.29;27.16;101033.91;4967828;28;20046;-83
2022/08/01 10:19:07;;;;;;;10.23;8.57;;;;;;;35.03;27.11;100976.22;4970232;28;20402;-82
2022/08/01 10:21:44;;;;;;;9.50;8.18;;;;;;;35.44;26.56;101010.84;4968909;28;20054;-85
2022/08/01 10:24:27;;;;;;;9.10;8.30;;;;;;;35.41;26.83;101003.97;4970744;28;20047;-82
2022/08/01 10:27:03;;;;;;;10.82;7.47;;;;;;;35.66;25.54;101004.81;4972084;28;20055;-83
2022/08/01 10:29:56;;;;;;;9.80;7.97;;;;;;;35.99;25.81;101018.75;4915892;28;20228;-82
2022/08/01 10:32:35;;;;;;;6.65;5.95;;;;;;;35.98;25.25;101011.59;4968180;28;20492;-83
2022/08/01 10:35:05;;;;;;;;;;;;;;;36.04;25.38;101007.63;4969937;28;20054;-83
2022/08/01 10:37:40;;;;;;;7.03;6.40;;;;;;;35.91;25.02;100935.44;4953460;28;19936;-83
2022/08/01 10:40:18;;;;;;;6.93;5.47;;;;;;;36.37;24.98;100980.91;4959151;28;20097;-84
2022/08/01 10:43:02;;;;;;;6.15;4.97;;;;;;;36.67;24.73;100987.91;4956975;28;20106;-83
2022/08/01 10:45:29;;;;;;;5.20;4.70;;;;;;;36.68;24.88;100961.06;4952045;28;20055;-80
2022/08/01 10:48:05;;;;;;;6.75;5.43;;;;;;;37.18;24.88;100995.28;4963684;28;20053;-83
2022/08/01 10:50:40;;;;;;;10.25;5.13;;;;;;;37.23;24.20;100997.16;4968242;28;20441;-82
2022/08/01 10:53:19;;;;;;;6.70;5.90;;;;;;;37.24;23.90;100997.97;4967580;28;20199;-81
2022/08/01 10:55:56;;;;;;;4.25;3.85;;;;;;;37.22;23.70;100992.75;4968971;28;20145;-82
2022/08/01 10:58:32;;;;;;;5.80;4.07;;;;;;;37.26;23.63;100979.91;4965542;28;20058;-82
2022/08/01 11:01:20;;;;;;;5.10;4.40;;;;;;;37.51;23.90;100981.34;4967986;28;20073;-80
2022/08/01 11:03:59;;;;;;;8.13;4.97;;;;;;;37.72;23.32;100978.16;4967207;28;20043;-82
2022/08/01 11:06:33;;;;;;;4.80;4.40;;;;;;;37.78;23.03;100979.72;4967407;28;20500;-82
2022/08/01 11:09:20;;;;;;;5.35;4.45;;;;;;;37.98;22.36;100973.69;4969286;28;20551;-82
2022/08/01 11:12:03;;;;;;;4.90;4.43;;;;;;;38.18;23.24;100971.63;4971052;28;20046;-80
2022/08/01 11:14:33;;;;;;;4.03;3.60;;;;;;;38.20;23.27;100961.03;4971261;28;20046;-84
2022/08/01 11:17:34;;;;;;;4.88;3.92;;;;;;;38.47;22.00;100962.88;4971935;28;20070;-82
2022/08/01 11:20:37;;;;;;;3.75;3.50;;;;;;;37.81;22.18;100860.78;4970150;28;20051;-82
2022/08/01 11:23:09;;;;;;;4.68;4.30;;;;;;;38.59;22.65;100956.75;4943631;28;20074;-82
2022/08/01 11:25:36;;;;;;;4.43;4.03;;;;;;;38.61;22.47;100957.28;4971431;28;20055;-82
2022/08/01 11:28:25;;;;;;;4.63;4.20;;;;;;;38.25;22.68;100883.28;4972013;28;20093;-82
2022/08/01 11:31:06;;;;;;;4.43;3.80;;;;;;;38.80;21.74;100941.22;4971642;28;20054;-82
2022/08/01 11:33:40;;;;;;;7.05;3.92;;;;;;;38.96;21.97;100943.59;4971452;28;20043;-83
2022/08/01 11:36:10;;;;;;;4.72;3.05;;;;;;;39.02;21.93;100939.56;4971983;28;20058;-81
2022/08/01 11:38:38;;;;;;;4.87;3.60;;;;;;;39.13;21.98;100940.06;4966319;28;20066;-82
2022/08/01 11:41:20;;;;;;;4.47;3.22;;;;;;;39.39;21.17;100934.63;4978007;28;20097;-80
2022/08/01 11:44:17;;;;;;;3.37;3.03;;;;;;;39.37;21.02;100929.38;4964219;28;20059;-81
2022/08/01 11:46:55;;;;;;;5.20;3.20;;;;;;;39.43;21.01;100924.53;4971266;28;20133;-81